sensor_id;sensor_type;location;lat;lon;timestamp;temperature;humidity
43524;DHT22;29120;52.006;6.020;2023-04-03T00:00:44;4.90;90.60
43524;DHT22;29120;52.006;6.020;2023-04-03T00:03:09;4.90;90.70
43524;DHT22;29120;52.006;6.020;2023-04-03T00:05:35;4.90;90.70
43524;DHT22;29120;52.006;6.020;2023-04-03T00:08:00;4.90;90.70
43524;DHT22;29120;52.006;6.020;2023-04-03T00:10:27;4.90;90.70
43524;DHT22;29120;52.006;6.020;2023-04-03T00:12:52;4.90;90.80
43524;DHT22;29120;52.006;6.020;2023-04-03T00:15:18;4.80;90.80
43524;DHT22;29120;52.006;6.020;2023-04-03T00:17:44;4.80;90.80
43524;DHT22;29120;52.006;6.020;2023-04-03T00:20:09;4.80;90.90
43524;DHT22;29120;52.006;6.020;2023-04-03T00:22:35;4.80;90.90
43524;DHT22;29120;52.006;6.020;2023-04-03T00:25:00;4.70;90.90
43524;DHT22;29120;52.006;6.020;2023-04-03T00:27:26;4.70;91.00
43524;DHT22;29120;52.006;6.020;2023-04-03T00:29:51;4.70;91.10
43524;DHT22;29120;52.006;6.020;2023-04-03T00:32:17;4.70;91.10
43524;DHT22;29120;52.006;6.020;2023-04-03T00:34:43;4.60;91.10
43524;DHT22;29120;52.006;6.020;2023-04-03T00:37:08;4.60;91.20
43524;DHT22;29120;52.006;6.020;2023-04-03T00:39:34;4.60;91.30
43524;DHT22;29120;52.006;6.020;2023-04-03T00:42:00;4.60;91.30
43524;DHT22;29120;52.006;6.020;2023-04-03T00:47:00;4.60;91.50
43524;DHT22;29120;52.006;6.020;2023-04-03T00:49:27;4.50;91.50
43524;DHT22;29120;52.006;6.020;2023-04-03T00:51:53;4.50;91.60
43524;DHT22;29120;52.006;6.020;2023-04-03T00:54:19;4.50;91.60
43524;DHT22;29120;52.006;6.020;2023-04-03T00:56:45;4.40;91.70
43524;DHT22;29120;52.006;6.020;2023-04-03T00:59:53;4.40;91.70
43524;DHT22;29120;52.006;6.020;2023-04-03T01:01:59;4.40;91.80
43524;DHT22;29120;52.006;6.020;2023-04-03T01:04:35;4.40;91.90
43524;DHT22;29120;52.006;6.020;2023-04-03T01:07:06;4.30;92.00
43524;DHT22;29120;52.006;6.020;2023-04-03T01:09:32;4.40;92.10
43524;DHT22;29120;52.006;6.020;2023-04-03T01:14:41;4.30;92.20
43524;DHT22;29120;52.006;6.020;2023-04-03T01:23:05;4.20;92.40
43524;DHT22;29120;52.006;6.020;2023-04-03T01:25:25;4.20;92.50
43524;DHT22;29120;52.006;6.020;2023-04-03T01:27:51;4.30;92.60
43524;DHT22;29120;52.006;6.020;2023-04-03T01:30:18;4.20;92.70
43524;DHT22;29120;52.006;6.020;2023-04-03T01:32:44;4.20;92.70
43524;DHT22;29120;52.006;6.020;2023-04-03T01:35:09;4.20;92.80
43524;DHT22;29120;52.006;6.020;2023-04-03T01:37:35;4.10;92.90
43524;DHT22;29120;52.006;6.020;2023-04-03T01:40:00;4.20;93.00
43524;DHT22;29120;52.006;6.020;2023-04-03T01:42:26;4.10;93.10
43524;DHT22;29120;52.006;6.020;2023-04-03T01:44:51;4.10;93.10
43524;DHT22;29120;52.006;6.020;2023-04-03T01:47:17;4.10;93.20
43524;DHT22;29120;52.006;6.020;2023-04-03T01:49:42;4.10;93.30
43524;DHT22;29120;52.006;6.020;2023-04-03T01:52:08;4.00;93.40
43524;DHT22;29120;52.006;6.020;2023-04-03T01:54:33;4.10;93.50
43524;DHT22;29120;52.006;6.020;2023-04-03T01:56:59;4.00;93.60
43524;DHT22;29120;52.006;6.020;2023-04-03T01:59:24;4.00;93.60
43524;DHT22;29120;52.006;6.020;2023-04-03T02:01:50;4.00;93.70
43524;DHT22;29120;52.006;6.020;2023-04-03T02:04:15;4.00;93.80
43524;DHT22;29120;52.006;6.020;2023-04-03T02:06:41;4.00;93.90
43524;DHT22;29120;52.006;6.020;2023-04-03T02:09:06;3.90;93.90
43524;DHT22;29120;52.006;6.020;2023-04-03T02:11:32;3.90;94.00
43524;DHT22;29120;52.006;6.020;2023-04-03T02:13:57;3.90;94.10
43524;DHT22;29120;52.006;6.020;2023-04-03T02:16:23;3.90;94.10
43524;DHT22;29120;52.006;6.020;2023-04-03T02:18:48;3.90;94.20
43524;DHT22;29120;52.006;6.020;2023-04-03T02:21:15;3.80;94.30
43524;DHT22;29120;52.006;6.020;2023-04-03T02:23:40;3.80;94.30
43524;DHT22;29120;52.006;6.020;2023-04-03T02:26:07;3.80;94.40
43524;DHT22;29120;52.006;6.020;2023-04-03T02:28:33;3.80;94.60
43524;DHT22;29120;52.006;6.020;2023-04-03T02:30:59;3.80;94.60
43524;DHT22;29120;52.006;6.020;2023-04-03T02:33:25;3.80;94.70
43524;DHT22;29120;52.006;6.020;2023-04-03T02:35:56;3.80;94.80
43524;DHT22;29120;52.006;6.020;2023-04-03T02:38:22;3.80;94.80
43524;DHT22;29120;52.006;6.020;2023-04-03T02:40:48;3.70;94.80
43524;DHT22;29120;52.006;6.020;2023-04-03T02:43:14;3.70;94.80
43524;DHT22;29120;52.006;6.020;2023-04-03T02:45:39;3.80;94.90
43524;DHT22;29120;52.006;6.020;2023-04-03T02:48:05;3.70;95.10
43524;DHT22;29120;52.006;6.020;2023-04-03T02:50:31;3.70;95.10
43524;DHT22;29120;52.006;6.020;2023-04-03T02:52:56;3.60;95.20
43524;DHT22;29120;52.006;6.020;2023-04-03T02:55:22;3.60;95.20
43524;DHT22;29120;52.006;6.020;2023-04-03T02:57:47;3.60;95.30
43524;DHT22;29120;52.006;6.020;2023-04-03T03:00:13;3.60;95.30
43524;DHT22;29120;52.006;6.020;2023-04-03T03:02:39;3.60;95.40
43524;DHT22;29120;52.006;6.020;2023-04-03T03:05:05;3.60;95.40
43524;DHT22;29120;52.006;6.020;2023-04-03T03:07:31;3.60;95.50
43524;DHT22;29120;52.006;6.020;2023-04-03T03:09:56;3.50;95.50
43524;DHT22;29120;52.006;6.020;2023-04-03T03:12:22;3.50;95.60
43524;DHT22;29120;52.006;6.020;2023-04-03T03:14:48;3.50;95.60
43524;DHT22;29120;52.006;6.020;2023-04-03T03:17:14;3.40;95.60
43524;DHT22;29120;52.006;6.020;2023-04-03T03:19:39;3.40;95.70
43524;DHT22;29120;52.006;6.020;2023-04-03T03:22:05;3.40;95.70
43524;DHT22;29120;52.006;6.020;2023-04-03T03:24:31;3.40;95.70
43524;DHT22;29120;52.006;6.020;2023-04-03T03:26:57;3.30;95.80
43524;DHT22;29120;52.006;6.020;2023-04-03T03:29:23;3.30;95.80
43524;DHT22;29120;52.006;6.020;2023-04-03T03:31:48;3.30;95.90
43524;DHT22;29120;52.006;6.020;2023-04-03T03:34:14;3.30;95.90
43524;DHT22;29120;52.006;6.020;2023-04-03T03:36:39;3.30;96.00
43524;DHT22;29120;52.006;6.020;2023-04-03T03:39:06;3.30;96.00
43524;DHT22;29120;52.006;6.020;2023-04-03T03:41:31;3.20;96.10
43524;DHT22;29120;52.006;6.020;2023-04-03T03:43:57;3.20;96.10
43524;DHT22;29120;52.006;6.020;2023-04-03T03:46:22;3.20;96.20
43524;DHT22;29120;52.006;6.020;2023-04-03T03:48:48;3.20;96.30
43524;DHT22;29120;52.006;6.020;2023-04-03T03:51:13;3.20;96.30
43524;DHT22;29120;52.006;6.020;2023-04-03T03:53:39;3.20;96.30
43524;DHT22;29120;52.006;6.020;2023-04-03T03:56:05;3.10;96.40
43524;DHT22;29120;52.006;6.020;2023-04-03T03:58:31;3.10;96.40
43524;DHT22;29120;52.006;6.020;2023-04-03T04:01:00;3.10;96.40
43524;DHT22;29120;52.006;6.020;2023-04-03T04:03:25;3.10;96.50
43524;DHT22;29120;52.006;6.020;2023-04-03T04:05:51;3.00;96.50
43524;DHT22;29120;52.006;6.020;2023-04-03T04:08:16;3.00;96.60
43524;DHT22;29120;52.006;6.020;2023-04-03T04:10:42;3.00;96.60
43524;DHT22;29120;52.006;6.020;2023-04-03T04:13:07;3.00;96.70
43524;DHT22;29120;52.006;6.020;2023-04-03T04:15:33;2.90;96.70
43524;DHT22;29120;52.006;6.020;2023-04-03T04:17:59;2.90;96.80
43524;DHT22;29120;52.006;6.020;2023-04-03T04:20:24;2.80;96.90
43524;DHT22;29120;52.006;6.020;2023-04-03T04:22:50;2.80;96.90
43524;DHT22;29120;52.006;6.020;2023-04-03T04:25:15;2.80;97.00
43524;DHT22;29120;52.006;6.020;2023-04-03T04:27:41;2.80;97.10
43524;DHT22;29120;52.006;6.020;2023-04-03T04:30:06;2.80;97.10
43524;DHT22;29120;52.006;6.020;2023-04-03T04:32:32;2.70;97.20
43524;DHT22;29120;52.006;6.020;2023-04-03T04:34:58;2.70;97.40
43524;DHT22;29120;52.006;6.020;2023-04-03T04:37:23;2.70;97.50
43524;DHT22;29120;52.006;6.020;2023-04-03T04:39:49;2.60;97.50
43524;DHT22;29120;52.006;6.020;2023-04-03T04:42:14;2.60;97.60
43524;DHT22;29120;52.006;6.020;2023-04-03T04:44:40;2.60;97.70
43524;DHT22;29120;52.006;6.020;2023-04-03T04:47:05;2.60;97.70
43524;DHT22;29120;52.006;6.020;2023-04-03T04:49:31;2.50;97.70
43524;DHT22;29120;52.006;6.020;2023-04-03T04:51:56;2.50;97.80
43524;DHT22;29120;52.006;6.020;2023-04-03T04:54:22;2.50;97.80
43524;DHT22;29120;52.006;6.020;2023-04-03T04:56:47;2.50;97.90
43524;DHT22;29120;52.006;6.020;2023-04-03T04:59:13;2.50;98.00
43524;DHT22;29120;52.006;6.020;2023-04-03T05:01:38;2.40;98.10
43524;DHT22;29120;52.006;6.020;2023-04-03T05:04:04;2.40;98.10
43524;DHT22;29120;52.006;6.020;2023-04-03T05:06:29;2.40;98.10
43524;DHT22;29120;52.006;6.020;2023-04-03T05:08:57;2.40;98.10
43524;DHT22;29120;52.006;6.020;2023-04-03T05:11:22;2.40;98.20
43524;DHT22;29120;52.006;6.020;2023-04-03T05:13:48;2.40;98.20
43524;DHT22;29120;52.006;6.020;2023-04-03T05:16:13;2.40;98.20
43524;DHT22;29120;52.006;6.020;2023-04-03T05:18:39;2.40;98.30
43524;DHT22;29120;52.006;6.020;2023-04-03T05:21:04;2.40;98.30
43524;DHT22;29120;52.006;6.020;2023-04-03T05:23:30;2.40;98.40
43524;DHT22;29120;52.006;6.020;2023-04-03T05:25:55;2.40;98.40
43524;DHT22;29120;52.006;6.020;2023-04-03T05:28:21;2.30;98.40
43524;DHT22;29120;52.006;6.020;2023-04-03T05:30:52;2.40;98.50
43524;DHT22;29120;52.006;6.020;2023-04-03T05:33:18;2.40;98.50
43524;DHT22;29120;52.006;6.020;2023-04-03T05:35:43;2.40;98.50
43524;DHT22;29120;52.006;6.020;2023-04-03T05:38:09;2.40;98.50
43524;DHT22;29120;52.006;6.020;2023-04-03T05:40:34;2.40;98.60
43524;DHT22;29120;52.006;6.020;2023-04-03T05:43:00;2.40;98.50
43524;DHT22;29120;52.006;6.020;2023-04-03T05:45:25;2.40;98.60
43524;DHT22;29120;52.006;6.020;2023-04-03T05:47:51;2.40;98.60
43524;DHT22;29120;52.006;6.020;2023-04-03T05:50:16;2.40;98.60
43524;DHT22;29120;52.006;6.020;2023-04-03T05:52:43;2.40;98.70
43524;DHT22;29120;52.006;6.020;2023-04-03T05:55:09;2.40;98.70
43524;DHT22;29120;52.006;6.020;2023-04-03T05:57:35;2.40;98.80
43524;DHT22;29120;52.006;6.020;2023-04-03T06:00:00;2.60;99.00
43524;DHT22;29120;52.006;6.020;2023-04-03T06:02:26;2.80;98.90
43524;DHT22;29120;52.006;6.020;2023-04-03T06:04:52;3.00;98.80
43524;DHT22;29120;52.006;6.020;2023-04-03T06:07:18;3.20;98.70
43524;DHT22;29120;52.006;6.020;2023-04-03T06:09:46;3.30;98.50
43524;DHT22;29120;52.006;6.020;2023-04-03T06:12:12;3.60;98.40
43524;DHT22;29120;52.006;6.020;2023-04-03T06:14:38;3.80;98.20
43524;DHT22;29120;52.006;6.020;2023-04-03T06:17:03;4.00;98.00
43524;DHT22;29120;52.006;6.020;2023-04-03T06:19:29;4.30;97.90
43524;DHT22;29120;52.006;6.020;2023-04-03T06:21:55;4.50;97.70
43524;DHT22;29120;52.006;6.020;2023-04-03T06:24:21;4.70;97.70
43524;DHT22;29120;52.006;6.020;2023-04-03T06:26:49;5.00;97.00
43524;DHT22;29120;52.006;6.020;2023-04-03T06:29:16;5.30;96.80
43524;DHT22;29120;52.006;6.020;2023-04-03T06:31:42;5.50;96.50
43524;DHT22;29120;52.006;6.020;2023-04-03T06:34:07;5.70;95.90
43524;DHT22;29120;52.006;6.020;2023-04-03T06:36:33;5.80;95.90
43524;DHT22;29120;52.006;6.020;2023-04-03T06:39:00;6.00;95.80
43524;DHT22;29120;52.006;6.020;2023-04-03T06:41:25;6.20;95.20
43524;DHT22;29120;52.006;6.020;2023-04-03T06:43:51;6.40;94.80
43524;DHT22;29120;52.006;6.020;2023-04-03T06:46:18;6.60;94.50
43524;DHT22;29120;52.006;6.020;2023-04-03T06:48:43;6.80;94.40
43524;DHT22;29120;52.006;6.020;2023-04-03T06:51:22;7.00;93.20
43524;DHT22;29120;52.006;6.020;2023-04-03T06:53:49;7.30;93.30
43524;DHT22;29120;52.006;6.020;2023-04-03T06:56:15;7.50;92.40
43524;DHT22;29120;52.006;6.020;2023-04-03T06:58:42;7.90;91.60
43524;DHT22;29120;52.006;6.020;2023-04-03T07:01:08;8.10;91.20
43524;DHT22;29120;52.006;6.020;2023-04-03T07:03:34;8.30;90.90
43524;DHT22;29120;52.006;6.020;2023-04-03T07:06:00;8.60;90.10
43524;DHT22;29120;52.006;6.020;2023-04-03T07:08:26;8.70;88.00
43524;DHT22;29120;52.006;6.020;2023-04-03T07:10:51;8.80;87.80
43524;DHT22;29120;52.006;6.020;2023-04-03T07:13:17;8.80;86.00
43524;DHT22;29120;52.006;6.020;2023-04-03T07:15:42;8.70;86.40
43524;DHT22;29120;52.006;6.020;2023-04-03T07:18:08;8.70;86.90
43524;DHT22;29120;52.006;6.020;2023-04-03T07:20:33;8.70;86.80
43524;DHT22;29120;52.006;6.020;2023-04-03T07:22:59;8.90;86.10
43524;DHT22;29120;52.006;6.020;2023-04-03T07:25:25;9.10;85.70
43524;DHT22;29120;52.006;6.020;2023-04-03T07:27:50;9.20;84.60
43524;DHT22;29120;52.006;6.020;2023-04-03T07:30:16;9.40;84.50
43524;DHT22;29120;52.006;6.020;2023-04-03T07:32:41;9.60;83.00
43524;DHT22;29120;52.006;6.020;2023-04-03T07:35:07;9.60;82.40
43524;DHT22;29120;52.006;6.020;2023-04-03T07:37:33;9.80;82.60
43524;DHT22;29120;52.006;6.020;2023-04-03T07:39:58;9.80;81.60
43524;DHT22;29120;52.006;6.020;2023-04-03T07:42:24;9.90;80.30
43524;DHT22;29120;52.006;6.020;2023-04-03T07:44:51;10.00;79.70
43524;DHT22;29120;52.006;6.020;2023-04-03T07:47:17;10.10;79.30
43524;DHT22;29120;52.006;6.020;2023-04-03T07:49:43;10.30;78.70
43524;DHT22;29120;52.006;6.020;2023-04-03T07:52:09;10.60;78.40
43524;DHT22;29120;52.006;6.020;2023-04-03T07:54:34;10.90;77.40
43524;DHT22;29120;52.006;6.020;2023-04-03T07:57:00;11.40;75.50
43524;DHT22;29120;52.006;6.020;2023-04-03T07:59:26;11.70;73.80
43524;DHT22;29120;52.006;6.020;2023-04-03T08:01:51;12.00;72.20
43524;DHT22;29120;52.006;6.020;2023-04-03T08:04:17;12.00;71.30
43524;DHT22;29120;52.006;6.020;2023-04-03T08:06:43;12.00;70.10
43524;DHT22;29120;52.006;6.020;2023-04-03T08:09:08;11.90;69.70
43524;DHT22;29120;52.006;6.020;2023-04-03T08:11:34;11.90;69.20
43524;DHT22;29120;52.006;6.020;2023-04-03T08:14:01;11.90;69.10
43524;DHT22;29120;52.006;6.020;2023-04-03T08:16:27;12.10;68.80
43524;DHT22;29120;52.006;6.020;2023-04-03T08:18:54;12.50;68.90
43524;DHT22;29120;52.006;6.020;2023-04-03T08:21:19;12.80;67.50
43524;DHT22;29120;52.006;6.020;2023-04-03T08:23:47;13.10;66.30
43524;DHT22;29120;52.006;6.020;2023-04-03T08:26:16;13.10;63.20
43524;DHT22;29120;52.006;6.020;2023-04-03T08:28:42;13.10;62.00
43524;DHT22;29120;52.006;6.020;2023-04-03T08:31:09;13.00;62.70
43524;DHT22;29120;52.006;6.020;2023-04-03T08:33:37;13.00;61.60
43524;DHT22;29120;52.006;6.020;2023-04-03T08:36:03;12.90;61.50
43524;DHT22;29120;52.006;6.020;2023-04-03T08:38:29;12.90;61.60
43524;DHT22;29120;52.006;6.020;2023-04-03T08:41:04;13.00;61.20
43524;DHT22;29120;52.006;6.020;2023-04-03T08:43:37;12.90;59.90
43524;DHT22;29120;52.006;6.020;2023-04-03T08:46:06;12.90;57.80
43524;DHT22;29120;52.006;6.020;2023-04-03T08:48:38;12.80;57.10
43524;DHT22;29120;52.006;6.020;2023-04-03T08:51:09;12.90;57.60
43524;DHT22;29120;52.006;6.020;2023-04-03T08:53:37;13.10;56.50
43524;DHT22;29120;52.006;6.020;2023-04-03T08:56:10;13.20;54.20
43524;DHT22;29120;52.006;6.020;2023-04-03T08:58:42;13.20;53.50
43524;DHT22;29120;52.006;6.020;2023-04-03T09:01:21;13.30;53.60
43524;DHT22;29120;52.006;6.020;2023-04-03T09:03:48;13.80;51.80
43524;DHT22;29120;52.006;6.020;2023-04-03T09:06:20;14.20;51.00
43524;DHT22;29120;52.006;6.020;2023-04-03T09:21:58;14.60;46.40
43524;DHT22;29120;52.006;6.020;2023-04-03T09:24:25;14.70;47.30
43524;DHT22;29120;52.006;6.020;2023-04-03T09:26:53;14.60;46.10
43524;DHT22;29120;52.006;6.020;2023-04-03T09:29:22;14.60;46.40
43524;DHT22;29120;52.006;6.020;2023-04-03T09:31:48;14.70;46.40
43524;DHT22;29120;52.006;6.020;2023-04-03T09:36:44;14.80;44.10
43524;DHT22;29120;52.006;6.020;2023-04-03T09:39:17;15.00;43.40
43524;DHT22;29120;52.006;6.020;2023-04-03T09:41:54;15.60;43.80
43524;DHT22;29120;52.006;6.020;2023-04-03T09:44:21;15.90;42.80
43524;DHT22;29120;52.006;6.020;2023-04-03T09:46:47;16.20;42.80
43524;DHT22;29120;52.006;6.020;2023-04-03T09:49:13;16.70;43.50
43524;DHT22;29120;52.006;6.020;2023-04-03T09:51:38;17.00;42.80
43524;DHT22;29120;52.006;6.020;2023-04-03T09:56:51;17.50;40.00
43524;DHT22;29120;52.006;6.020;2023-04-03T09:59:16;17.70;40.40
43524;DHT22;29120;52.006;6.020;2023-04-03T10:01:43;18.00;40.70
43524;DHT22;29120;52.006;6.020;2023-04-03T10:04:13;18.50;40.30
43524;DHT22;29120;52.006;6.020;2023-04-03T10:06:40;18.40;37.60
43524;DHT22;29120;52.006;6.020;2023-04-03T10:09:24;19.00;39.50
43524;DHT22;29120;52.006;6.020;2023-04-03T10:14:30;19.80;38.80
43524;DHT22;29120;52.006;6.020;2023-04-03T10:17:02;20.20;38.60
43524;DHT22;29120;52.006;6.020;2023-04-03T10:19:36;20.20;37.70
43524;DHT22;29120;52.006;6.020;2023-04-03T10:35:40;15.80;41.30
43524;DHT22;29120;52.006;6.020;2023-04-03T10:38:15;15.30;42.50
43524;DHT22;29120;52.006;6.020;2023-04-03T10:43:14;15.90;42.20
43524;DHT22;29120;52.006;6.020;2023-04-03T10:45:53;16.40;40.90
43524;DHT22;29120;52.006;6.020;2023-04-03T10:48:36;16.10;41.90
43524;DHT22;29120;52.006;6.020;2023-04-03T10:53:55;16.70;40.60
43524;DHT22;29120;52.006;6.020;2023-04-03T10:56:42;18.10;39.80
43524;DHT22;29120;52.006;6.020;2023-04-03T11:01:44;20.20;38.90
43524;DHT22;29120;52.006;6.020;2023-04-03T11:04:10;20.50;36.10
43524;DHT22;29120;52.006;6.020;2023-04-03T11:06:44;20.40;35.30
43524;DHT22;29120;52.006;6.020;2023-04-03T11:11:39;20.60;34.70
43524;DHT22;29120;52.006;6.020;2023-04-03T11:14:08;20.80;35.20
43524;DHT22;29120;52.006;6.020;2023-04-03T11:16:37;20.80;34.10
43524;DHT22;29120;52.006;6.020;2023-04-03T11:19:11;20.80;34.50
43524;DHT22;29120;52.006;6.020;2023-04-03T11:21:43;20.80;34.00
43524;DHT22;29120;52.006;6.020;2023-04-03T11:24:14;21.00;34.70
43524;DHT22;29120;52.006;6.020;2023-04-03T11:26:41;21.30;34.70
43524;DHT22;29120;52.006;6.020;2023-04-03T11:29:09;21.80;34.50
43524;DHT22;29120;52.006;6.020;2023-04-03T11:36:32;21.90;33.70
43524;DHT22;29120;52.006;6.020;2023-04-03T11:39:00;21.70;34.00
43524;DHT22;29120;52.006;6.020;2023-04-03T11:41:27;22.00;34.60
43524;DHT22;29120;52.006;6.020;2023-04-03T11:46:22;21.50;34.10
43524;DHT22;29120;52.006;6.020;2023-04-03T11:48:48;21.60;34.20
43524;DHT22;29120;52.006;6.020;2023-04-03T11:53:45;21.90;33.50
43524;DHT22;29120;52.006;6.020;2023-04-03T12:01:43;21.40;33.50
43524;DHT22;29120;52.006;6.020;2023-04-03T12:04:10;21.70;34.40
43524;DHT22;29120;52.006;6.020;2023-04-03T12:09:10;22.50;34.30
43524;DHT22;29120;52.006;6.020;2023-04-03T12:11:46;22.60;34.20
43524;DHT22;29120;52.006;6.020;2023-04-03T12:14:15;22.20;33.00
43524;DHT22;29120;52.006;6.020;2023-04-03T12:16:46;22.00;33.50
43524;DHT22;29120;52.006;6.020;2023-04-03T12:32:36;21.80;33.70
43524;DHT22;29120;52.006;6.020;2023-04-03T12:45:50;22.40;33.40
43524;DHT22;29120;52.006;6.020;2023-04-03T12:48:18;22.20;33.70
43524;DHT22;29120;52.006;6.020;2023-04-03T12:50:46;22.50;34.00
43524;DHT22;29120;52.006;6.020;2023-04-03T12:53:19;22.50;32.90
43524;DHT22;29120;52.006;6.020;2023-04-03T12:55:47;22.10;33.10
43524;DHT22;29120;52.006;6.020;2023-04-03T12:58:13;22.00;34.60
43524;DHT22;29120;52.006;6.020;2023-04-03T13:00:40;22.00;34.90
43524;DHT22;29120;52.006;6.020;2023-04-03T13:03:06;22.20;34.60
43524;DHT22;29120;52.006;6.020;2023-04-03T13:05:32;22.40;34.60
43524;DHT22;29120;52.006;6.020;2023-04-03T13:08:16;22.40;34.00
43524;DHT22;29120;52.006;6.020;2023-04-03T13:13:18;21.90;33.20
43524;DHT22;29120;52.006;6.020;2023-04-03T13:15:45;21.60;32.70
43524;DHT22;29120;52.006;6.020;2023-04-03T13:18:24;21.50;33.80
43524;DHT22;29120;52.006;6.020;2023-04-03T13:20:50;21.70;35.10
43524;DHT22;29120;52.006;6.020;2023-04-03T13:23:16;21.90;34.40
43524;DHT22;29120;52.006;6.020;2023-04-03T13:25:43;22.10;34.30
43524;DHT22;29120;52.006;6.020;2023-04-03T13:28:15;22.00;33.20
43524;DHT22;29120;52.006;6.020;2023-04-03T13:30:54;22.10;34.30
43524;DHT22;29120;52.006;6.020;2023-04-03T13:33:22;21.70;33.30
43524;DHT22;29120;52.006;6.020;2023-04-03T13:35:48;21.60;34.30
43524;DHT22;29120;52.006;6.020;2023-04-03T13:38:22;21.70;34.90
43524;DHT22;29120;52.006;6.020;2023-04-03T13:40:52;21.90;35.50
43524;DHT22;29120;52.006;6.020;2023-04-03T13:43:23;21.60;34.50
43524;DHT22;29120;52.006;6.020;2023-04-03T13:45:57;21.40;35.30
43524;DHT22;29120;52.006;6.020;2023-04-03T13:48:23;21.30;35.30
43524;DHT22;29120;52.006;6.020;2023-04-03T13:50:53;21.40;35.40
43524;DHT22;29120;52.006;6.020;2023-04-03T13:53:19;21.20;35.50
43524;DHT22;29120;52.006;6.020;2023-04-03T13:58:27;21.20;35.20
43524;DHT22;29120;52.006;6.020;2023-04-03T14:00:54;20.90;34.90
43524;DHT22;29120;52.006;6.020;2023-04-03T14:03:21;20.50;35.20
43524;DHT22;29120;52.006;6.020;2023-04-03T14:05:47;20.20;35.80
43524;DHT22;29120;52.006;6.020;2023-04-03T14:08:13;20.00;36.20
43524;DHT22;29120;52.006;6.020;2023-04-03T14:10:38;19.90;36.10
43524;DHT22;29120;52.006;6.020;2023-04-03T14:13:04;19.80;36.60
43524;DHT22;29120;52.006;6.020;2023-04-03T14:15:30;19.90;36.70
43524;DHT22;29120;52.006;6.020;2023-04-03T14:17:56;19.80;37.00
43524;DHT22;29120;52.006;6.020;2023-04-03T14:20:23;19.70;36.80
43524;DHT22;29120;52.006;6.020;2023-04-03T14:22:49;19.50;36.50
43524;DHT22;29120;52.006;6.020;2023-04-03T14:25:15;19.20;36.90
43524;DHT22;29120;52.006;6.020;2023-04-03T14:27:42;19.00;36.80
43524;DHT22;29120;52.006;6.020;2023-04-03T14:30:09;18.90;36.50
43524;DHT22;29120;52.006;6.020;2023-04-03T14:32:37;18.50;36.90
43524;DHT22;29120;52.006;6.020;2023-04-03T14:35:03;18.30;37.80
43524;DHT22;29120;52.006;6.020;2023-04-03T14:37:29;18.60;39.00
43524;DHT22;29120;52.006;6.020;2023-04-03T14:39:55;18.70;38.00
43524;DHT22;29120;52.006;6.020;2023-04-03T14:42:29;18.60;38.90
43524;DHT22;29120;52.006;6.020;2023-04-03T14:44:56;18.60;39.30
43524;DHT22;29120;52.006;6.020;2023-04-03T14:47:23;18.60;39.40
43524;DHT22;29120;52.006;6.020;2023-04-03T14:49:49;18.60;39.40
43524;DHT22;29120;52.006;6.020;2023-04-03T14:52:23;18.40;38.80
43524;DHT22;29120;52.006;6.020;2023-04-03T14:54:49;18.20;39.60
43524;DHT22;29120;52.006;6.020;2023-04-03T14:57:15;18.00;39.60
43524;DHT22;29120;52.006;6.020;2023-04-03T14:59:41;17.90;39.60
43524;DHT22;29120;52.006;6.020;2023-04-03T15:02:23;17.80;39.30
43524;DHT22;29120;52.006;6.020;2023-04-03T15:04:49;17.60;39.60
43524;DHT22;29120;52.006;6.020;2023-04-03T15:07:14;17.60;40.30
43524;DHT22;29120;52.006;6.020;2023-04-03T15:09:41;17.40;40.10
43524;DHT22;29120;52.006;6.020;2023-04-03T15:12:07;17.20;40.10
43524;DHT22;29120;52.006;6.020;2023-04-03T15:14:33;17.30;40.50
43524;DHT22;29120;52.006;6.020;2023-04-03T15:16:58;17.20;40.20
43524;DHT22;29120;52.006;6.020;2023-04-03T15:19:24;17.00;39.90
43524;DHT22;29120;52.006;6.020;2023-04-03T15:21:49;16.90;40.80
43524;DHT22;29120;52.006;6.020;2023-04-03T15:24:15;16.80;41.00
43524;DHT22;29120;52.006;6.020;2023-04-03T15:26:40;16.50;41.10
43524;DHT22;29120;52.006;6.020;2023-04-03T15:29:06;16.10;40.80
43524;DHT22;29120;52.006;6.020;2023-04-03T15:31:32;15.60;41.50
43524;DHT22;29120;52.006;6.020;2023-04-03T15:33:57;15.10;42.00
43524;DHT22;29120;52.006;6.020;2023-04-03T15:36:23;14.70;42.80
43524;DHT22;29120;52.006;6.020;2023-04-03T15:38:48;14.40;43.10
43524;DHT22;29120;52.006;6.020;2023-04-03T15:41:14;14.20;43.80
43524;DHT22;29120;52.006;6.020;2023-04-03T15:43:39;13.80;44.30
43524;DHT22;29120;52.006;6.020;2023-04-03T15:46:05;13.50;44.40
43524;DHT22;29120;52.006;6.020;2023-04-03T15:48:30;13.10;44.80
43524;DHT22;29120;52.006;6.020;2023-04-03T15:50:56;12.90;45.20
43524;DHT22;29120;52.006;6.020;2023-04-03T15:53:21;12.60;45.70
43524;DHT22;29120;52.006;6.020;2023-04-03T15:55:47;12.50;46.40
43524;DHT22;29120;52.006;6.020;2023-04-03T15:58:12;12.40;46.80
43524;DHT22;29120;52.006;6.020;2023-04-03T16:00:38;12.30;47.10
43524;DHT22;29120;52.006;6.020;2023-04-03T16:03:04;12.20;47.10
43524;DHT22;29120;52.006;6.020;2023-04-03T16:05:30;12.10;47.40
43524;DHT22;29120;52.006;6.020;2023-04-03T16:07:56;11.90;47.60
43524;DHT22;29120;52.006;6.020;2023-04-03T16:10:23;11.80;47.80
43524;DHT22;29120;52.006;6.020;2023-04-03T16:12:48;11.60;48.10
43524;DHT22;29120;52.006;6.020;2023-04-03T16:15:14;11.50;48.40
43524;DHT22;29120;52.006;6.020;2023-04-03T16:17:40;11.50;48.30
43524;DHT22;29120;52.006;6.020;2023-04-03T16:20:08;11.40;48.70
43524;DHT22;29120;52.006;6.020;2023-04-03T16:22:35;11.40;48.90
43524;DHT22;29120;52.006;6.020;2023-04-03T16:25:00;11.30;49.20
43524;DHT22;29120;52.006;6.020;2023-04-03T16:27:26;11.20;49.40
43524;DHT22;29120;52.006;6.020;2023-04-03T16:29:53;11.20;49.70
43524;DHT22;29120;52.006;6.020;2023-04-03T16:32:19;11.10;49.60
43524;DHT22;29120;52.006;6.020;2023-04-03T16:34:45;11.00;50.10
43524;DHT22;29120;52.006;6.020;2023-04-03T16:37:10;11.00;50.10
43524;DHT22;29120;52.006;6.020;2023-04-03T16:39:36;10.90;50.40
43524;DHT22;29120;52.006;6.020;2023-04-03T16:42:01;10.90;50.70
43524;DHT22;29120;52.006;6.020;2023-04-03T16:44:27;10.90;50.90
43524;DHT22;29120;52.006;6.020;2023-04-03T16:46:53;10.90;50.50
43524;DHT22;29120;52.006;6.020;2023-04-03T16:49:18;10.80;50.70
43524;DHT22;29120;52.006;6.020;2023-04-03T16:51:44;10.80;50.90
43524;DHT22;29120;52.006;6.020;2023-04-03T16:54:10;10.70;50.80
43524;DHT22;29120;52.006;6.020;2023-04-03T16:56:37;10.60;51.20
43524;DHT22;29120;52.006;6.020;2023-04-03T16:59:03;10.60;51.40
43524;DHT22;29120;52.006;6.020;2023-04-03T17:01:28;10.60;51.60
43524;DHT22;29120;52.006;6.020;2023-04-03T17:03:54;10.60;51.80
43524;DHT22;29120;52.006;6.020;2023-04-03T17:06:20;10.50;51.90
43524;DHT22;29120;52.006;6.020;2023-04-03T17:08:48;10.40;52.00
43524;DHT22;29120;52.006;6.020;2023-04-03T17:11:14;10.30;52.00
43524;DHT22;29120;52.006;6.020;2023-04-03T17:13:40;10.20;52.40
43524;DHT22;29120;52.006;6.020;2023-04-03T17:16:06;10.20;52.50
43524;DHT22;29120;52.006;6.020;2023-04-03T17:18:32;10.10;52.70